Time;durP1;ratioP1;P1;durP2;ratioP2;P2;SDS_P1;SDS_P2;PMS_P1;PMS_P2;Temp;Humidity;BMP_temperature;BMP_pressure;BME280_temperature;BME280_humidity;BME280_pressure;Samples;Min_cycle;Max_cycle;Signal;HPM_P1;HPM_P2
2022/11/26 00:02:17;;;;;;;19.73;12.50;;;;;;;;;;5064327;28;20284;-82
2022/11/26 00:04:46;;;;;;;15.87;12.17;;;;;;;;;;5062482;28;20232;-82
2022/11/26 00:07:14;;;;;;;19.97;11.97;;;;;;;;;;5051618;28;20310;-82
2022/11/26 00:09:42;;;;;;;20.53;12.50;;;;;;;;;;5053638;28;20245;-82
2022/11/26 00:12:16;;;;;;;23.37;12.50;;;;;;;;;;5069599;28;20243;-82
2022/11/26 00:14:43;;;;;;;20.83;13.90;;;;;;;;;;5071015;28;20222;-82
2022/11/26 00:17:13;;;;;;;25.37;14.90;;;;;;;;;;5056001;28;20791;-81
2022/11/26 00:19:40;;;;;;;23.03;12.77;;;;;;;;;;5064818;28;20579;-81
2022/11/26 00:22:15;;;;;;;20.90;13.27;;;;;;;;;;5070280;28;20289;-81
2022/11/26 00:24:42;;;;;;;20.53;13.13;;;;;;;;;;5053000;28;20699;-81
2022/11/26 00:27:09;;;;;;;19.37;13.10;;;;;;;;;;5068714;28;20279;-81
2022/11/26 00:29:36;;;;;;;23.87;12.87;;;;;;;;;;5058350;28;20315;-81
2022/11/26 00:32:04;;;;;;;21.17;13.53;;;;;;;;;;5053565;28;20286;-81
2022/11/26 00:34:31;;;;;;;23.93;14.30;;;;;;;;;;5055764;28;20671;-82
2022/11/26 00:36:58;;;;;;;21.77;13.33;;;;;;;;;;5055233;28;20602;-81
2022/11/26 00:39:26;;;;;;;21.77;14.27;;;;;;;;;;5067921;28;20282;-81
2022/11/26 00:41:54;;;;;;;21.07;13.63;;;;;;;;;;5075141;28;20632;-82
2022/11/26 00:44:22;;;;;;;22.70;13.70;;;;;;;;;;5058478;28;20228;-82
2022/11/26 00:46:50;;;;;;;21.50;14.10;;;;;;;;;;5055302;28;20664;-82
2022/11/26 00:49:19;;;;;;;23.50;14.20;;;;;;;;;;5055081;28;20630;-82
2022/11/26 00:51:47;;;;;;;21.83;13.87;;;;;;;;;;5054789;28;20195;-82
2022/11/26 00:54:15;;;;;;;23.27;14.83;;;;;;;;;;5054918;28;20235;-82
2022/11/26 00:56:44;;;;;;;17.67;11.10;;;;;;;;;;5059016;28;20221;-82
2022/11/26 00:59:13;;;;;;;16.23;11.40;;;;;;;;;;5074960;28;20289;-82
2022/11/26 01:01:40;;;;;;;17.60;10.67;;;;;;;;;;5074768;28;20206;-82
2022/11/26 01:04:08;;;;;;;20.90;11.30;;;;;;;;;;5074669;28;20741;-82
2022/11/26 01:06:36;;;;;;;16.57;11.60;;;;;;;;;;5074621;28;20274;-82
2022/11/26 01:09:05;;;;;;;18.43;11.47;;;;;;;;;;5066776;28;20629;-81
2022/11/26 01:11:32;;;;;;;19.07;11.60;;;;;;;;;;5074082;28;20326;-82
2022/11/26 01:14:01;;;;;;;19.50;12.67;;;;;;;;;;5074361;28;20762;-81
2022/11/26 01:16:29;;;;;;;20.53;12.10;;;;;;;;;;5072511;28;20231;-81
2022/11/26 01:18:58;;;;;;;17.63;11.30;;;;;;;;;;5074448;28;20207;-81
2022/11/26 01:21:26;;;;;;;18.03;11.60;;;;;;;;;;5054649;28;20199;-81
2022/11/26 01:23:53;;;;;;;16.50;11.27;;;;;;;;;;5053800;28;20249;-81
2022/11/26 01:26:22;;;;;;;16.77;10.57;;;;;;;;;;5053951;28;20196;-81
2022/11/26 01:28:50;;;;;;;19.77;11.23;;;;;;;;;;5063683;28;20219;-80
2022/11/26 01:31:19;;;;;;;19.13;11.17;;;;;;;;;;5074140;28;20195;-81
2022/11/26 01:33:47;;;;;;;18.13;10.17;;;;;;;;;;5053409;28;20291;-82
2022/11/26 01:36:20;;;;;;;20.50;10.67;;;;;;;;;;5054119;28;20235;-82
2022/11/26 01:38:47;;;;;;;19.03;10.53;;;;;;;;;;5054045;28;20199;-81
2022/11/26 01:41:21;;;;;;;17.57;10.27;;;;;;;;;;5053906;28;20250;-82
2022/11/26 01:43:50;;;;;;;21.00;10.93;;;;;;;;;;5053988;28;20203;-82
2022/11/26 01:46:21;;;;;;;20.17;10.70;;;;;;;;;;5060844;28;20285;-81
2022/11/26 01:48:49;;;;;;;16.47;10.60;;;;;;;;;;5054244;28;20291;-82
2022/11/26 01:51:19;;;;;;;18.30;10.73;;;;;;;;;;5053731;28;20288;-81
2022/11/26 01:53:48;;;;;;;19.47;10.00;;;;;;;;;;5053923;28;20234;-82
2022/11/26 01:56:31;;;;;;;17.97;8.43;;;;;;;;;;5070746;28;20231;-82
2022/11/26 01:59:01;;;;;;;14.40;7.93;;;;;;;;;;5072956;28;20209;-81
2022/11/26 02:01:31;;;;;;;20.87;8.50;;;;;;;;;;5071480;28;20195;-81
2022/11/26 02:04:01;;;;;;;16.73;9.73;;;;;;;;;;5073656;28;20635;-82
2022/11/26 02:06:31;;;;;;;18.90;10.07;;;;;;;;;;5073306;28;20812;-81
2022/11/26 02:09:00;;;;;;;16.30;9.40;;;;;;;;;;5073402;28;20241;-82
2022/11/26 02:11:27;;;;;;;12.83;8.77;;;;;;;;;;5072067;28;20199;-81
2022/11/26 02:13:57;;;;;;;14.70;9.23;;;;;;;;;;5073427;28;20213;-82
2022/11/26 02:16:32;;;;;;;16.30;8.70;;;;;;;;;;5073232;28;20207;-81
2022/11/26 02:19:04;;;;;;;13.97;8.73;;;;;;;;;;5064957;28;20278;-82
2022/11/26 02:21:33;;;;;;;15.63;8.37;;;;;;;;;;5053122;28;20203;-82
2022/11/26 02:24:10;;;;;;;15.67;8.90;;;;;;;;;;5072676;28;20202;-81
2022/11/26 02:27:01;;;;;;;20.00;9.83;;;;;;;;;;5073410;28;20193;-81
2022/11/26 02:29:32;;;;;;;16.87;9.20;;;;;;;;;;5072780;28;20221;-81
2022/11/26 02:32:06;;;;;;;12.70;8.33;;;;;;;;;;5073218;28;20200;-81
2022/11/26 02:34:39;;;;;;;18.40;8.97;;;;;;;;;;5072635;28;20296;-82
2022/11/26 02:37:08;;;;;;;20.00;9.93;;;;;;;;;;5072662;28;20227;-81
2022/11/26 02:39:35;;;;;;;19.97;8.83;;;;;;;;;;5054013;28;20238;-81
2022/11/26 02:42:03;;;;;;;18.33;8.97;;;;;;;;;;5055039;28;20278;-81
2022/11/26 02:44:32;;;;;;;17.20;8.90;;;;;;;;;;5072122;28;20720;-81
2022/11/26 02:47:02;;;;;;;15.60;8.27;;;;;;;;;;5048852;28;20282;-81
2022/11/26 02:49:31;;;;;;;18.37;8.67;;;;;;;;;;5058895;28;20298;-81
2022/11/26 02:52:00;;;;;;;16.47;8.03;;;;;;;;;;5072395;28;20286;-82
2022/11/26 02:54:27;;;;;;;18.80;9.07;;;;;;;;;;5071587;28;20293;-82
2022/11/26 02:56:55;;;;;;;14.67;8.03;;;;;;;;;;5072261;28;20306;-82
2022/11/26 02:59:22;;;;;;;19.37;8.37;;;;;;;;;;5072815;28;20227;-82
2022/11/26 03:01:52;;;;;;;15.77;8.77;;;;;;;;;;5058224;28;20258;-82
2022/11/26 03:04:21;;;;;;;17.60;8.00;;;;;;;;;;5072592;28;20667;-81
2022/11/26 03:06:51;;;;;;;18.27;8.00;;;;;;;;;;5071184;28;20314;-81
2022/11/26 03:09:18;;;;;;;22.60;8.03;;;;;;;;;;5072123;28;20240;-82
2022/11/26 03:11:46;;;;;;;17.20;7.63;;;;;;;;;;5070929;28;20290;-81
2022/11/26 03:14:13;;;;;;;14.70;7.73;;;;;;;;;;5059976;28;20668;-81
2022/11/26 03:16:40;;;;;;;12.93;7.13;;;;;;;;;;5052783;28;20201;-81
2022/11/26 03:19:07;;;;;;;18.17;7.90;;;;;;;;;;5059367;28;20286;-82
2022/11/26 03:21:35;;;;;;;13.13;7.37;;;;;;;;;;5052618;28;20795;-82
2022/11/26 03:24:03;;;;;;;14.20;7.40;;;;;;;;;;5058043;28;20652;-81
2022/11/26 03:26:31;;;;;;;12.67;7.37;;;;;;;;;;5063015;28;20281;-82
2022/11/26 03:28:58;;;;;;;17.03;7.83;;;;;;;;;;5072267;28;20253;-81
2022/11/26 03:31:25;;;;;;;15.60;7.60;;;;;;;;;;5072060;28;20195;-82
2022/11/26 03:33:52;;;;;;;14.17;7.13;;;;;;;;;;5071074;28;20231;-80
2022/11/26 03:36:20;;;;;;;14.73;7.30;;;;;;;;;;5070568;28;20290;-82
2022/11/26 03:38:47;;;;;;;15.77;7.33;;;;;;;;;;5070318;28;20660;-81
2022/11/26 03:41:15;;;;;;;23.60;8.33;;;;;;;;;;5060013;28;20198;-81
2022/11/26 03:43:43;;;;;;;15.87;7.57;;;;;;;;;;5070367;28;20226;-82
2022/11/26 03:46:10;;;;;;;18.73;7.80;;;;;;;;;;5072711;28;20245;-81
2022/11/26 03:48:37;;;;;;;18.90;7.83;;;;;;;;;;5072030;28;20235;-81
2022/11/26 03:51:04;;;;;;;14.70;7.10;;;;;;;;;;5072081;28;20290;-82
2022/11/26 03:53:32;;;;;;;18.83;7.03;;;;;;;;;;5072300;28;20244;-82
2022/11/26 03:56:02;;;;;;;16.90;7.20;;;;;;;;;;5068798;28;20249;-81
2022/11/26 03:58:30;;;;;;;11.57;6.90;;;;;;;;;;5072001;28;20314;-82
2022/11/26 04:00:57;;;;;;;13.57;6.93;;;;;;;;;;5070986;28;20290;-81
2022/11/26 04:03:25;;;;;;;16.97;7.00;;;;;;;;;;5071023;28;20285;-81
2022/11/26 04:05:52;;;;;;;13.77;7.00;;;;;;;;;;5069709;28;20226;-81
2022/11/26 04:08:19;;;;;;;19.60;7.13;;;;;;;;;;5055596;28;20323;-81
2022/11/26 04:10:47;;;;;;;19.47;7.70;;;;;;;;;;5055948;28;20230;-81
2022/11/26 04:13:14;;;;;;;15.83;7.00;;;;;;;;;;5055656;28;20262;-80
2022/11/26 04:15:43;;;;;;;13.07;7.10;;;;;;;;;;5069170;28;20603;-82
2022/11/26 04:18:10;;;;;;;15.37;7.27;;;;;;;;;;5072990;28;20222;-82
2022/11/26 04:20:37;;;;;;;16.23;6.97;;;;;;;;;;5055462;28;20287;-82
2022/11/26 04:23:05;;;;;;;17.33;7.37;;;;;;;;;;5055413;28;20291;-81
2022/11/26 04:25:32;;;;;;;19.13;7.33;;;;;;;;;;5064191;28;20226;-81
2022/11/26 04:27:59;;;;;;;18.83;7.37;;;;;;;;;;5074660;28;20289;-81
2022/11/26 04:30:26;;;;;;;19.73;7.10;;;;;;;;;;5075268;28;20320;-80
2022/11/26 04:32:55;;;;;;;17.83;7.20;;;;;;;;;;5066303;28;20238;-81
2022/11/26 04:35:22;;;;;;;15.87;6.30;;;;;;;;;;5074187;28;20272;-82
2022/11/26 04:37:49;;;;;;;18.20;6.83;;;;;;;;;;5075438;28;20273;-81
2022/11/26 04:40:17;;;;;;;14.67;6.50;;;;;;;;;;5074057;28;20237;-82
2022/11/26 04:42:44;;;;;;;21.10;7.17;;;;;;;;;;5075275;28;20284;-82
2022/11/26 04:45:12;;;;;;;20.97;7.30;;;;;;;;;;5074254;28;20203;-81
2022/11/26 04:47:39;;;;;;;17.60;7.10;;;;;;;;;;5074988;28;20285;-81
2022/11/26 04:50:09;;;;;;;15.30;6.63;;;;;;;;;;5060103;28;20237;-81
2022/11/26 04:52:36;;;;;;;16.60;7.03;;;;;;;;;;5054940;28;20207;-80
2022/11/26 04:55:04;;;;;;;10.80;5.53;;;;;;;;;;5058537;28;20710;-80
2022/11/26 04:57:31;;;;;;;15.43;6.43;;;;;;;;;;5074600;28;20306;-80
2022/11/26 04:59:58;;;;;;;18.83;6.83;;;;;;;;;;5074694;28;20778;-81
2022/11/26 05:02:25;;;;;;;15.63;6.13;;;;;;;;;;5074938;28;20237;-81
2022/11/26 05:04:52;;;;;;;15.27;6.77;;;;;;;;;;5055504;28;20286;-81
2022/11/26 05:07:21;;;;;;;19.97;7.73;;;;;;;;;;5054629;28;20322;-81
2022/11/26 05:09:48;;;;;;;16.93;7.73;;;;;;;;;;5072042;28;20791;-81
2022/11/26 05:12:15;;;;;;;19.17;8.23;;;;;;;;;;5054736;28;20210;-81
2022/11/26 05:14:42;;;;;;;20.47;8.23;;;;;;;;;;5054450;28;20246;-81
2022/11/26 05:17:10;;;;;;;19.00;7.60;;;;;;;;;;5053799;28;20200;-81
2022/11/26 05:19:37;;;;;;;18.00;8.23;;;;;;;;;;5063140;28;20249;-81
2022/11/26 05:22:07;;;;;;;21.20;8.20;;;;;;;;;;5060979;28;20226;-81
2022/11/26 05:24:36;;;;;;;22.40;8.57;;;;;;;;;;5074298;28;20762;-80
2022/11/26 05:27:04;;;;;;;18.90;8.57;;;;;;;;;;5073696;28;20666;-81
2022/11/26 05:29:32;;;;;;;24.93;8.60;;;;;;;;;;5064142;28;20223;-80
2022/11/26 05:31:59;;;;;;;22.23;8.30;;;;;;;;;;5072769;28;20206;-79
2022/11/26 05:34:27;;;;;;;24.53;8.90;;;;;;;;;;5068831;28;20228;-80
2022/11/26 05:36:54;;;;;;;20.23;8.63;;;;;;;;;;5054139;28;20226;-81
2022/11/26 05:39:22;;;;;;;25.33;8.77;;;;;;;;;;5054198;28;20314;-79
2022/11/26 05:41:51;;;;;;;25.77;9.00;;;;;;;;;;5054247;28;20215;-80
2022/11/26 05:44:18;;;;;;;22.07;8.87;;;;;;;;;;5061219;28;20298;-81
2022/11/26 05:46:45;;;;;;;20.73;8.30;;;;;;;;;;5073052;28;21045;-81
2022/11/26 05:49:12;;;;;;;15.07;8.27;;;;;;;;;;5073639;28;20287;-81
2022/11/26 05:51:40;;;;;;;19.57;9.17;;;;;;;;;;5073811;28;20632;-81
2022/11/26 05:54:07;;;;;;;23.27;8.90;;;;;;;;;;5073878;28;20235;-80
2022/11/26 05:56:34;;;;;;;22.53;8.70;;;;;;;;;;5074012;28;20234;-80
2022/11/26 05:59:03;;;;;;;22.17;8.67;;;;;;;;;;5073430;28;20310;-81
2022/11/26 06:01:31;;;;;;;22.77;8.77;;;;;;;;;;5073533;28;20295;-80
2022/11/26 06:03:58;;;;;;;17.13;9.47;;;;;;;;;;5053836;28;20635;-81
2022/11/26 06:06:25;;;;;;;23.23;10.17;;;;;;;;;;5053247;28;20323;-81
2022/11/26 06:08:53;;;;;;;17.00;9.40;;;;;;;;;;5053668;28;20631;-80
2022/11/26 06:11:20;;;;;;;21.10;9.70;;;;;;;;;;5059710;28;20704;-81
2022/11/26 06:13:47;;;;;;;21.53;9.37;;;;;;;;;;5073755;28;20227;-80
2022/11/26 06:16:16;;;;;;;20.37;10.03;;;;;;;;;;5073294;28;20233;-81
2022/11/26 06:18:43;;;;;;;17.80;9.63;;;;;;;;;;5068570;28;20256;-80
2022/11/26 06:21:11;;;;;;;16.50;9.37;;;;;;;;;;5063985;28;20200;-80
2022/11/26 06:23:38;;;;;;;16.63;9.93;;;;;;;;;;5069551;28;20257;-81
2022/11/26 06:26:11;;;;;;;15.47;10.17;;;;;;;;;;5063478;28;20283;-81
2022/11/26 06:28:39;;;;;;;15.07;9.47;;;;;;;;;;5052482;28;20238;-81
2022/11/26 06:31:06;;;;;;;17.10;10.07;;;;;;;;;;5070005;28;20234;-81
2022/11/26 06:33:35;;;;;;;19.87;9.57;;;;;;;;;;5073350;28;20260;-81
2022/11/26 06:36:03;;;;;;;16.63;10.03;;;;;;;;;;5072361;28;20203;-80
2022/11/26 06:38:31;;;;;;;15.60;9.20;;;;;;;;;;5073111;28;20310;-81
2022/11/26 06:41:00;;;;;;;17.07;10.33;;;;;;;;;;5072707;28;20224;-81
2022/11/26 06:43:27;;;;;;;15.30;10.10;;;;;;;;;;5072927;28;20199;-81
2022/11/26 06:45:54;;;;;;;17.67;10.33;;;;;;;;;;5072725;28;20199;-80
2022/11/26 06:48:23;;;;;;;20.57;10.73;;;;;;;;;;5070813;28;20230;-79
2022/11/26 06:50:52;;;;;;;15.80;9.40;;;;;;;;;;5052607;28;20283;-81
2022/11/26 06:53:19;;;;;;;17.10;10.17;;;;;;;;;;5053123;28;20659;-80
2022/11/26 06:55:46;;;;;;;18.13;9.33;;;;;;;;;;5052751;28;20302;-80
2022/11/26 06:58:14;;;;;;;14.50;9.37;;;;;;;;;;5065749;28;20305;-81
2022/11/26 07:00:41;;;;;;;17.77;8.60;;;;;;;;;;5071269;28;20206;-81
2022/11/26 07:03:09;;;;;;;15.50;8.80;;;;;;;;;;5067414;28;20196;-81
2022/11/26 07:05:37;;;;;;;15.50;8.73;;;;;;;;;;5052623;28;20204;-81
2022/11/26 07:08:06;;;;;;;16.70;9.27;;;;;;;;;;5052046;28;20262;-81
2022/11/26 07:10:33;;;;;;;16.70;8.70;;;;;;;;;;5052886;28;20291;-81
2022/11/26 07:13:00;;;;;;;15.37;8.50;;;;;;;;;;5052412;28;20238;-81
2022/11/26 07:15:27;;;;;;;12.93;8.63;;;;;;;;;;5052324;28;20235;-80
2022/11/26 07:17:54;;;;;;;14.63;8.70;;;;;;;;;;5052063;28;20291;-81
2022/11/26 07:20:22;;;;;;;13.80;8.57;;;;;;;;;;5060814;28;20282;-81
2022/11/26 07:22:50;;;;;;;15.10;8.97;;;;;;;;;;5061362;28;20243;-81
2022/11/26 07:25:18;;;;;;;16.97;9.37;;;;;;;;;;5064083;28;20215;-81
2022/11/26 07:27:46;;;;;;;17.90;9.50;;;;;;;;;;5072616;28;20249;-81
2022/11/26 07:30:13;;;;;;;16.63;8.77;;;;;;;;;;5072119;28;20222;-81
2022/11/26 07:32:42;;;;;;;14.77;8.53;;;;;;;;;;5072124;28;20203;-80
2022/11/26 07:35:09;;;;;;;19.00;7.83;;;;;;;;;;5069494;28;20253;-81
2022/11/26 07:37:37;;;;;;;18.40;8.57;;;;;;;;;;5052508;28;20298;-81
2022/11/26 07:40:05;;;;;;;14.73;8.10;;;;;;;;;;5053005;28;20259;-80
2022/11/26 07:42:34;;;;;;;15.20;8.37;;;;;;;;;;5056233;28;20290;-81
2022/11/26 07:45:02;;;;;;;15.93;8.20;;;;;;;;;;5070455;28;20199;-81
2022/11/26 07:47:29;;;;;;;17.20;7.87;;;;;;;;;;5068471;28;20222;-81
2022/11/26 07:49:57;;;;;;;16.83;8.10;;;;;;;;;;5056399;28;20200;-81
2022/11/26 07:52:24;;;;;;;16.47;8.47;;;;;;;;;;5060746;28;20744;-81
2022/11/26 07:54:51;;;;;;;16.20;8.77;;;;;;;;;;5075545;28;20222;-81
2022/11/26 07:57:20;;;;;;;16.43;8.00;;;;;;;;;;5069716;28;20227;-81
2022/11/26 07:59:49;;;;;;;13.10;8.00;;;;;;;;;;5056227;28;20234;-81
2022/11/26 08:02:18;;;;;;;14.33;7.70;;;;;;;;;;5069188;28;20290;-80
2022/11/26 08:04:45;;;;;;;15.93;7.73;;;;;;;;;;5074988;28;20234;-79
2022/11/26 08:07:14;;;;;;;14.20;7.07;;;;;;;;;;5075740;28;20281;-80
2022/11/26 08:09:41;;;;;;;16.03;6.80;;;;;;;;;;5059846;28;20199;-79
2022/11/26 08:12:09;;;;;;;15.43;7.03;;;;;;;;;;5055439;28;20747;-80
2022/11/26 08:14:36;;;;;;;11.07;6.53;;;;;;;;;;5059095;28;20199;-80
2022/11/26 08:17:04;;;;;;;14.33;6.60;;;;;;;;;;5055577;28;20282;-81
2022/11/26 08:19:31;;;;;;;16.40;7.30;;;;;;;;;;5067083;28;20313;-79
2022/11/26 08:21:59;;;;;;;13.73;6.60;;;;;;;;;;5059414;28;20282;-80
2022/11/26 08:24:26;;;;;;;11.10;6.10;;;;;;;;;;5074769;28;20282;-80
2022/11/26 08:26:53;;;;;;;13.43;6.30;;;;;;;;;;5075154;28;20678;-80
2022/11/26 08:29:20;;;;;;;19.20;6.20;;;;;;;;;;5070246;28;20759;-79
2022/11/26 08:31:48;;;;;;;13.17;6.30;;;;;;;;;;5055815;28;20641;-80
2022/11/26 08:34:25;;;;;;;11.73;5.37;;;;;;;;;;5056096;28;20623;-80
2022/11/26 08:36:55;;;;;;;11.03;4.90;;;;;;;;;;5058186;28;20298;-80
2022/11/26 08:39:22;;;;;;;10.80;5.53;;;;;;;;;;5073645;28;20749;-80
2022/11/26 08:41:49;;;;;;;13.70;4.97;;;;;;;;;;5072511;28;20313;-80
2022/11/26 08:44:16;;;;;;;14.00;5.20;;;;;;;;;;5055261;28;20637;-80
2022/11/26 08:46:44;;;;;;;13.23;4.83;;;;;;;;;;5060217;28;20237;-80
2022/11/26 08:49:13;;;;;;;13.50;5.50;;;;;;;;;;5056351;28;20274;-80
2022/11/26 08:51:42;;;;;;;12.53;5.17;;;;;;;;;;5059183;28;20206;-79
2022/11/26 08:54:09;;;;;;;14.53;5.07;;;;;;;;;;5054576;28;20203;-80
2022/11/26 08:56:37;;;;;;;14.47;5.37;;;;;;;;;;5054577;28;20683;-80
2022/11/26 08:59:04;;;;;;;12.13;4.67;;;;;;;;;;5061078;28;20218;-80
2022/11/26 09:01:32;;;;;;;13.60;5.07;;;;;;;;;;5074081;28;20231;-81
2022/11/26 09:04:00;;;;;;;13.60;4.93;;;;;;;;;;5060898;28;20709;-78
2022/11/26 09:06:28;;;;;;;13.17;4.10;;;;;;;;;;5054213;28;20231;-78
2022/11/26 09:09:12;;;;;;;11.67;4.50;;;;;;;;;;5053514;28;20727;-79
2022/11/26 09:11:41;;;;;;;8.87;3.90;;;;;;;;;;5049415;28;20194;-81
2022/11/26 09:14:10;;;;;;;14.30;3.97;;;;;;;;;;5055961;28;20607;-80
2022/11/26 09:16:37;;;;;;;7.53;4.30;;;;;;;;;;5053160;28;20200;-80
2022/11/26 09:19:06;;;;;;;7.10;3.47;;;;;;;;;;5065131;28;20310;-80
2022/11/26 09:21:34;;;;;;;12.40;4.20;;;;;;;;;;5064527;28;20287;-80
2022/11/26 09:24:02;;;;;;;8.67;3.20;;;;;;;;;;5058593;28;20569;-81
2022/11/26 09:26:31;;;;;;;11.67;3.60;;;;;;;;;;5056353;28;20202;-79
2022/11/26 09:28:58;;;;;;;11.00;3.20;;;;;;;;;;5053127;28;20246;-80
2022/11/26 09:31:26;;;;;;;13.00;3.47;;;;;;;;;;5055081;28;20294;-80
2022/11/26 09:33:53;;;;;;;7.87;3.50;;;;;;;;;;5056600;28;20241;-81
2022/11/26 09:36:20;;;;;;;8.77;3.77;;;;;;;;;;5055865;28;20235;-81
2022/11/26 09:38:48;;;;;;;9.00;3.70;;;;;;;;;;5058315;28;20704;-81
2022/11/26 09:41:24;;;;;;;11.03;4.00;;;;;;;;;;5052495;28;20207;-81
2022/11/26 09:43:58;;;;;;;13.43;4.10;;;;;;;;;;5057940;28;20282;-82
2022/11/26 09:46:29;;;;;;;10.53;4.37;;;;;;;;;;5062949;28;20233;-81
2022/11/26 09:48:58;;;;;;;11.37;4.23;;;;;;;;;;5056436;28;20271;-80
2022/11/26 09:51:26;;;;;;;12.83;4.43;;;;;;;;;;5055801;28;20278;-80
2022/11/26 09:53:53;;;;;;;8.63;4.27;;;;;;;;;;5053267;28;20191;-81
2022/11/26 09:56:25;;;;;;;9.43;5.00;;;;;;;;;;5059817;28;20726;-78
2022/11/26 09:58:55;;;;;;;12.67;4.97;;;;;;;;;;5062820;28;20659;-78
2022/11/26 10:01:23;;;;;;;9.90;5.23;;;;;;;;;;5061279;28;20196;-81
2022/11/26 10:03:50;;;;;;;12.50;4.67;;;;;;;;;;5054429;28;20735;-81
2022/11/26 10:06:25;;;;;;;10.67;4.27;;;;;;;;;;5064647;28;20282;-82
2022/11/26 10:09:02;;;;;;;8.40;4.23;;;;;;;;;;5051926;28;20283;-80
2022/11/26 10:11:35;;;;;;;14.30;5.00;;;;;;;;;;5059952;28;20235;-80
2022/11/26 10:14:06;;;;;;;10.77;4.90;;;;;;;;;;5064499;28;20234;-80
2022/11/26 10:16:36;;;;;;;10.87;3.90;;;;;;;;;;5064517;28;20238;-80
2022/11/26 10:19:07;;;;;;;11.03;4.87;;;;;;;;;;5063784;28;20311;-79
2022/11/26 10:21:35;;;;;;;11.37;4.43;;;;;;;;;;5058925;28;20203;-80
2022/11/26 10:24:05;;;;;;;13.53;4.20;;;;;;;;;;5058535;28;20200;-82
2022/11/26 10:26:36;;;;;;;12.13;4.80;;;;;;;;;;5052393;28;20246;-76
2022/11/26 10:29:13;;;;;;;14.03;4.67;;;;;;;;;;5050179;28;20255;-79
2022/11/26 10:31:42;;;;;;;9.37;4.57;;;;;;;;;;5060602;28;20230;-77
2022/11/26 10:34:13;;;;;;;10.53;4.10;;;;;;;;;;5055360;28;20227;-78
2022/11/26 10:36:41;;;;;;;12.40;4.00;;;;;;;;;;5061335;28;20231;-78
2022/11/26 10:39:12;;;;;;;10.87;3.90;;;;;;;;;;5065764;28;20258;-80
2022/11/26 10:41:41;;;;;;;11.07;4.23;;;;;;;;;;5060830;28;20252;-77
2022/11/26 10:44:27;;;;;;;12.93;4.60;;;;;;;;;;5063108;28;20286;-79
2022/11/26 10:46:54;;;;;;;10.00;4.07;;;;;;;;;;5060415;28;20235;-80
2022/11/26 10:49:23;;;;;;;13.33;4.00;;;;;;;;;;5065936;28;20233;-80
2022/11/26 10:51:53;;;;;;;10.50;4.13;;;;;;;;;;5048329;28;20195;-80
2022/11/26 10:54:24;;;;;;;14.97;4.47;;;;;;;;;;5054076;28;20228;-80
2022/11/26 10:56:53;;;;;;;11.30;4.33;;;;;;;;;;5053480;28;20231;-80
2022/11/26 10:59:23;;;;;;;12.90;4.60;;;;;;;;;;5051711;28;20223;-80
2022/11/26 11:01:50;;;;;;;13.23;4.03;;;;;;;;;;5056544;28;20646;-80
2022/11/26 11:04:27;;;;;;;11.87;4.40;;;;;;;;;;5064554;28;20286;-79
2022/11/26 11:06:54;;;;;;;8.27;3.90;;;;;;;;;;5053830;28;20231;-81
2022/11/26 11:09:30;;;;;;;10.73;4.40;;;;;;;;;;5051610;28;20223;-78
2022/11/26 11:12:19;;;;;;;13.07;4.03;;;;;;;;;;5051638;28;20234;-77
2022/11/26 11:14:46;;;;;;;10.87;4.03;;;;;;;;;;5065093;28;20287;-80
2022/11/26 11:17:31;;;;;;;14.57;4.47;;;;;;;;;;5059126;28;20221;-80
2022/11/26 11:20:00;;;;;;;12.30;4.30;;;;;;;;;;5056408;28;20314;-80
2022/11/26 11:22:28;;;;;;;13.07;4.30;;;;;;;;;;5058107;28;20632;-83
2022/11/26 11:24:57;;;;;;;12.00;4.73;;;;;;;;;;5061204;28;20580;-80
2022/11/26 11:27:27;;;;;;;9.80;4.33;;;;;;;;;;5057514;28;20570;-80
2022/11/26 11:30:00;;;;;;;12.77;4.40;;;;;;;;;;5052695;28;20243;-80
2022/11/26 11:32:33;;;;;;;15.60;4.50;;;;;;;;;;5061374;28;20203;-80
2022/11/26 11:35:12;;;;;;;9.57;4.70;;;;;;;;;;5055812;28;20637;-81
2022/11/26 11:37:48;;;;;;;12.63;4.57;;;;;;;;;;5050060;28;20191;-78
2022/11/26 11:40:17;;;;;;;13.17;5.23;;;;;;;;;;5056187;28;20718;-80
2022/11/26 11:42:50;;;;;;;13.57;4.77;;;;;;;;;;5053425;28;20691;-80
2022/11/26 11:45:23;;;;;;;15.47;4.60;;;;;;;;;;5072341;28;20199;-80
2022/11/26 11:47:55;;;;;;;11.67;4.30;;;;;;;;;;5059724;28;20208;-80
2022/11/26 11:50:28;;;;;;;14.20;4.60;;;;;;;;;;5065949;28;20192;-80
2022/11/26 11:53:00;;;;;;;13.27;4.20;;;;;;;;;;5064803;28;20705;-80
2022/11/26 11:55:30;;;;;;;11.37;4.40;;;;;;;;;;5068103;28;20199;-79
2022/11/26 11:58:15;;;;;;;10.60;4.13;;;;;;;;;;5069006;28;20257;-79
2022/11/26 12:00:50;;;;;;;19.13;4.97;;;;;;;;;;5064235;28;20603;-79
2022/11/26 12:03:38;;;;;;;16.57;4.70;;;;;;;;;;5071148;28;20285;-79
2022/11/26 12:06:10;;;;;;;15.63;4.83;;;;;;;;;;5072022;28;20231;-79
2022/11/26 12:08:42;;;;;;;15.77;4.30;;;;;;;;;;5070945;28;20298;-80
2022/11/26 12:11:24;;;;;;;14.23;4.47;;;;;;;;;;5061711;28;20290;-78
2022/11/26 12:13:53;;;;;;;15.40;4.27;;;;;;;;;;5058117;28;20199;-79
2022/11/26 12:16:24;;;;;;;13.03;4.27;;;;;;;;;;5071650;28;20195;-79
2022/11/26 12:18:54;;;;;;;17.60;4.50;;;;;;;;;;5071320;28;20200;-79
2022/11/26 12:21:25;;;;;;;15.60;4.30;;;;;;;;;;5058683;28;20225;-80
2022/11/26 12:23:55;;;;;;;13.00;4.13;;;;;;;;;;5056199;28;20279;-79
2022/11/26 12:26:25;;;;;;;8.40;3.47;;;;;;;;;;5062019;28;20337;-78
2022/11/26 12:28:56;;;;;;;13.87;3.90;;;;;;;;;;5056088;28;20303;-79
2022/11/26 12:31:28;;;;;;;9.90;3.30;;;;;;;;;;5065082;28;20274;-79
2022/11/26 12:33:59;;;;;;;13.17;3.20;;;;;;;;;;5060063;28;20234;-79
2022/11/26 12:36:28;;;;;;;14.20;4.03;;;;;;;;;;5073013;28;20227;-79
2022/11/26 12:38:58;;;;;;;18.47;3.93;;;;;;;;;;5062200;28;20224;-79
2022/11/26 12:41:33;;;;;;;13.60;3.90;;;;;;;;;;5055476;28;20302;-79
2022/11/26 12:44:05;;;;;;;15.47;4.03;;;;;;;;;;5069318;28;20845;-79
2022/11/26 12:46:37;;;;;;;15.00;3.70;;;;;;;;;;5071191;28;20238;-79
2022/11/26 12:49:09;;;;;;;14.83;3.77;;;;;;;;;;5055102;28;20278;-80
2022/11/26 12:51:39;;;;;;;15.80;4.37;;;;;;;;;;5069728;28;20636;-79
2022/11/26 12:54:15;;;;;;;12.73;3.50;;;;;;;;;;5054245;28;20650;-79
2022/11/26 12:56:45;;;;;;;16.53;4.80;;;;;;;;;;5062781;28;20202;-78
2022/11/26 12:59:18;;;;;;;15.63;4.07;;;;;;;;;;5069755;28;20286;-78
2022/11/26 13:01:47;;;;;;;15.70;3.83;;;;;;;;;;5061562;28;20202;-79
2022/11/26 13:04:14;;;;;;;12.80;3.50;;;;;;;;;;5071298;28;20200;-80
2022/11/26 13:06:49;;;;;;;14.37;3.30;;;;;;;;;;5073550;28;20219;-80
2022/11/26 13:09:25;;;;;;;15.57;3.60;;;;;;;;;;5062499;28;20281;-80
2022/11/26 13:11:57;;;;;;;13.23;3.27;;;;;;;;;;5066292;28;20238;-80
2022/11/26 13:14:33;;;;;;;18.73;4.13;;;;;;;;;;5034985;28;20236;-80
2022/11/26 13:17:05;;;;;;;14.83;3.63;;;;;;;;;;5034139;28;20226;-80
2022/11/26 13:19:34;;;;;;;9.63;3.53;;;;;;;;;;5034568;28;20628;-80
2022/11/26 13:22:09;;;;;;;20.37;4.37;;;;;;;;;;5034047;28;20692;-80
2022/11/26 13:24:50;;;;;;;17.00;4.10;;;;;;;;;;5057431;28;20305;-80
2022/11/26 13:27:28;;;;;;;16.83;3.73;;;;;;;;;;5074456;28;20233;-79
2022/11/26 13:30:08;;;;;;;16.40;4.27;;;;;;;;;;5073917;28;20211;-80
2022/11/26 13:32:51;;;;;;;15.10;3.83;;;;;;;;;;5074271;28;20199;-80
2022/11/26 13:35:26;;;;;;;20.10;4.50;;;;;;;;;;5074163;28;20291;-80
2022/11/26 13:38:09;;;;;;;16.73;4.00;;;;;;;;;;5074238;28;20209;-81
2022/11/26 13:40:51;;;;;;;16.37;3.80;;;;;;;;;;5055545;28;20306;-80
2022/11/26 13:43:28;;;;;;;13.10;3.20;;;;;;;;;;5055643;28;20257;-79
2022/11/26 13:46:11;;;;;;;10.17;2.97;;;;;;;;;;5053814;28;20246;-80
2022/11/26 13:48:43;;;;;;;16.07;3.80;;;;;;;;;;5054027;28;20202;-80
2022/11/26 13:51:13;;;;;;;13.53;3.63;;;;;;;;;;5053797;28;20295;-79
2022/11/26 13:53:42;;;;;;;14.10;3.77;;;;;;;;;;5054246;28;20250;-80
2022/11/26 13:56:11;;;;;;;14.10;3.40;;;;;;;;;;5054053;28;20315;-80
2022/11/26 13:58:45;;;;;;;19.83;4.30;;;;;;;;;;5053994;28;20238;-80
2022/11/26 14:01:35;;;;;;;15.60;3.70;;;;;;;;;;5053439;28;20309;-79
2022/11/26 14:04:05;;;;;;;10.47;3.10;;;;;;;;;;5054118;28;20303;-80
2022/11/26 14:06:32;;;;;;;14.57;3.57;;;;;;;;;;5053600;28;20277;-80
2022/11/26 14:09:00;;;;;;;14.60;3.23;;;;;;;;;;5054060;28;20290;-80
2022/11/26 14:11:48;;;;;;;16.70;3.97;;;;;;;;;;5053688;28;20233;-80
2022/11/26 14:14:30;;;;;;;14.60;3.77;;;;;;;;;;5052943;28;20671;-80
2022/11/26 14:17:28;;;;;;;15.43;3.70;;;;;;;;;;5053786;28;20234;-80
2022/11/26 14:20:00;;;;;;;15.47;4.53;;;;;;;;;;5053294;28;20249;-79
2022/11/26 14:22:30;;;;;;;19.70;4.33;;;;;;;;;;5052893;28;20705;-79
2022/11/26 14:24:59;;;;;;;17.20;4.17;;;;;;;;;;5061185;28;20199;-79
2022/11/26 14:27:30;;;;;;;18.97;4.17;;;;;;;;;;5072054;28;20286;-80
2022/11/26 14:30:02;;;;;;;17.87;3.87;;;;;;;;;;5072821;28;20725;-79
2022/11/26 14:32:33;;;;;;;15.87;4.13;;;;;;;;;;5072982;28;20687;-80
2022/11/26 14:35:01;;;;;;;15.13;3.60;;;;;;;;;;5072975;28;20871;-79
2022/11/26 14:37:32;;;;;;;19.10;3.70;;;;;;;;;;5073161;28;20290;-80
2022/11/26 14:40:01;;;;;;;24.30;4.20;;;;;;;;;;5073147;28;20195;-79
2022/11/26 14:42:28;;;;;;;16.57;3.57;;;;;;;;;;5055820;28;20742;-79
2022/11/26 14:45:04;;;;;;;14.57;4.17;;;;;;;;;;5052911;28;20680;-80